Time;durP1;ratioP1;P1;durP2;ratioP2;P2;SDS_P1;SDS_P2;PMS_P1;PMS_P2;Temp;Humidity;BMP_temperature;BMP_pressure;BME280_temperature;BME280_humidity;BME280_pressure;Samples;Min_cycle;Max_cycle;Signal;HPM_P1;HPM_P2
2023/12/13 00:01:30;;;;;;;0.50;0.50;;;7.50;93.40;6.70;94539.00;;;;5075827;28;20524;-62
2023/12/13 00:03:57;;;;;;;0.70;0.70;;;7.60;93.50;6.80;94533.00;;;;5075630;28;20192;-62
2023/12/13 00:06:24;;;;;;;0.50;0.50;;;7.60;93.20;6.70;94530.00;;;;5075640;28;20690;-62
2023/12/13 00:08:51;;;;;;;0.70;0.70;;;7.60;92.80;6.70;94534.00;;;;5075588;28;20194;-62
2023/12/13 00:11:18;;;;;;;1.00;1.00;;;7.50;93.00;6.60;94526.00;;;;5075779;28;20207;-62
2023/12/13 00:13:45;;;;;;;0.50;0.50;;;7.50;93.00;6.60;94536.00;;;;5075402;28;20233;-62
2023/12/13 00:16:12;;;;;;;0.57;0.57;;;7.50;93.10;6.60;94527.00;;;;5075382;28;20183;-62
2023/12/13 00:18:42;;;;;;;0.50;0.50;;;7.50;92.70;6.50;94516.00;;;;5075459;28;20183;-63
2023/12/13 00:21:12;;;;;;;0.50;0.50;;;7.40;92.80;6.40;94526.00;;;;5075276;28;20270;-63
2023/12/13 00:23:39;;;;;;;0.50;0.50;;;7.30;93.20;6.40;94521.00;;;;5075254;28;20260;-62
2023/12/13 00:26:06;;;;;;;2.63;1.10;;;7.30;93.50;6.40;94522.00;;;;5074145;28;20191;-62
2023/12/13 00:28:35;;;;;;;0.50;0.50;;;7.30;93.90;6.40;94517.00;;;;5075516;28;20221;-63
2023/12/13 00:31:02;;;;;;;0.50;0.50;;;7.30;93.90;6.50;94523.00;;;;5075155;28;20187;-63
2023/12/13 00:33:29;;;;;;;0.70;0.70;;;7.30;93.70;6.40;94517.00;;;;5075009;28;20245;-63
2023/12/13 00:35:57;;;;;;;0.70;0.70;;;7.30;93.40;6.50;94521.00;;;;5075004;28;20190;-60
2023/12/13 00:38:24;;;;;;;0.50;0.50;;;7.30;93.60;6.50;94518.00;;;;5074942;28;20184;-62
2023/12/13 00:40:51;;;;;;;1.67;0.83;;;7.30;93.50;6.40;94523.00;;;;5074912;28;20180;-62
2023/12/13 00:43:19;;;;;;;0.50;0.50;;;7.30;93.30;6.40;94517.00;;;;5074911;28;20241;-62
2023/12/13 00:45:46;;;;;;;0.60;0.60;;;7.30;93.50;6.50;94517.00;;;;5074947;28;20184;-61
2023/12/13 00:48:13;;;;;;;0.53;0.53;;;7.40;92.90;6.40;94512.00;;;;5075290;28;20198;-62
2023/12/13 00:50:40;;;;;;;6.77;1.37;;;7.30;92.70;6.50;94515.00;;;;5074661;28;20191;-62
2023/12/13 00:53:08;;;;;;;0.50;0.50;;;7.30;93.10;6.50;94516.00;;;;5074501;28;20246;-61
2023/12/13 00:55:35;;;;;;;0.80;0.80;;;7.30;92.80;6.50;94517.00;;;;5074553;28;20226;-61
2023/12/13 00:58:02;;;;;;;1.80;1.07;;;7.30;92.80;6.40;94519.00;;;;5074631;28;20187;-62
2023/12/13 01:00:29;;;;;;;0.50;0.50;;;7.30;92.60;6.40;94517.00;;;;5074559;28;20195;-61
2023/12/13 01:02:57;;;;;;;0.60;0.60;;;7.30;93.00;6.40;94516.00;;;;5074654;28;20674;-61
2023/12/13 01:05:24;;;;;;;0.70;0.70;;;7.30;93.20;6.40;94516.00;;;;5074619;28;20202;-61
2023/12/13 01:07:51;;;;;;;0.70;0.70;;;7.30;93.00;6.40;94522.00;;;;5074476;28;20259;-61
2023/12/13 01:10:20;;;;;;;3.70;1.07;;;7.20;93.30;6.50;94518.00;;;;5074277;28;20184;-61
2023/12/13 01:12:47;;;;;;;0.70;0.70;;;7.30;93.40;6.50;94521.00;;;;5074058;28;20563;-61
2023/12/13 01:15:14;;;;;;;0.60;0.60;;;7.30;93.10;6.50;94516.00;;;;5074506;28;20202;-61
2023/12/13 01:17:41;;;;;;;0.60;0.60;;;7.30;93.10;6.50;94510.00;;;;5074710;28;20246;-61
2023/12/13 01:20:11;;;;;;;0.90;0.90;;;7.40;93.30;6.60;94512.00;;;;5074130;28;20677;-61
2023/12/13 01:22:38;;;;;;;0.50;0.50;;;7.40;93.30;6.50;94504.00;;;;5074220;28;20210;-61
2023/12/13 01:25:06;;;;;;;0.50;0.50;;;7.40;92.50;6.60;94515.00;;;;5074064;28;20183;-61
2023/12/13 01:27:34;;;;;;;0.50;0.50;;;7.50;92.50;6.60;94523.00;;;;5074007;28;20277;-61
2023/12/13 01:30:03;;;;;;;0.90;0.90;;;7.40;92.30;6.60;94506.00;;;;5073885;28;20195;-61
2023/12/13 01:32:30;;;;;;;1.47;1.37;;;7.40;92.60;6.60;94506.00;;;;5073707;28;20744;-60
2023/12/13 01:34:57;;;;;;;0.60;0.60;;;7.50;92.20;6.60;94509.00;;;;5074207;28;20198;-60
2023/12/13 01:37:24;;;;;;;0.70;0.70;;;7.50;92.10;6.70;94509.00;;;;5073898;28;20202;-60
2023/12/13 01:39:56;;;;;;;0.87;0.87;;;7.50;92.30;6.60;94516.00;;;;5073786;28;20191;-61
2023/12/13 01:42:23;;;;;;;0.93;0.93;;;7.50;91.50;6.50;94519.00;;;;5074141;28;20222;-61
2023/12/13 01:44:52;;;;;;;0.70;0.70;;;7.40;91.70;6.60;94525.00;;;;5073616;28;20674;-61
2023/12/13 01:47:19;;;;;;;0.50;0.50;;;7.40;91.40;6.70;94521.00;;;;5073574;28;20647;-61
2023/12/13 01:49:46;;;;;;;0.60;0.60;;;7.50;90.40;6.70;94523.00;;;;5073545;28;20663;-61
2023/12/13 01:52:16;;;;;;;0.53;0.53;;;7.50;91.00;6.70;94521.00;;;;5073367;28;20215;-61
2023/12/13 01:54:47;;;;;;;0.70;0.70;;;7.50;90.40;6.60;94519.00;;;;5073662;28;20200;-62
2023/12/13 01:57:15;;;;;;;0.60;0.60;;;7.40;90.00;6.70;94520.00;;;;5072227;28;20184;-61
2023/12/13 01:59:43;;;;;;;0.60;0.60;;;7.50;91.60;6.90;94521.00;;;;5073617;28;20199;-61
2023/12/13 02:02:11;;;;;;;1.10;1.03;;;7.60;90.50;6.90;94508.00;;;;5073780;28;20570;-61
2023/12/13 02:04:39;;;;;;;0.60;0.60;;;7.60;89.50;6.80;94507.00;;;;5073993;28;20192;-61
2023/12/13 02:07:06;;;;;;;0.60;0.60;;;7.60;89.30;7.00;94498.00;;;;5073618;28;20199;-61
2023/12/13 02:09:33;;;;;;;0.67;0.67;;;7.70;89.60;6.80;94488.00;;;;5073712;28;20191;-61
2023/12/13 02:12:01;;;;;;;0.80;0.80;;;7.70;89.40;6.90;94487.00;;;;5073573;28;20211;-62
2023/12/13 02:14:28;;;;;;;0.60;0.60;;;7.70;89.30;6.80;94480.00;;;;5073248;28;20219;-62
2023/12/13 02:16:55;;;;;;;0.60;0.60;;;7.60;89.60;6.70;94488.00;;;;5073542;28;20191;-61
2023/12/13 02:19:24;;;;;;;0.57;0.57;;;7.50;89.30;6.70;94493.00;;;;5073230;28;20194;-62
2023/12/13 02:21:56;;;;;;;0.60;0.60;;;7.50;89.30;6.70;94485.00;;;;5073248;28;20698;-61
2023/12/13 02:24:30;;;;;;;0.63;0.63;;;7.50;88.80;6.60;94487.00;;;;5073574;28;20553;-61
2023/12/13 02:26:57;;;;;;;5.30;1.27;;;7.50;89.60;6.60;94498.00;;;;5073364;28;20203;-61
2023/12/13 02:29:24;;;;;;;0.73;0.73;;;7.40;89.70;6.60;94490.00;;;;5073689;28;20186;-61
2023/12/13 02:31:51;;;;;;;0.60;0.60;;;7.40;90.30;6.60;94493.00;;;;5072999;28;20222;-61
2023/12/13 02:34:18;;;;;;;0.80;0.80;;;7.40;90.30;6.60;94486.00;;;;5073063;28;20215;-62
2023/12/13 02:36:46;;;;;;;0.60;0.60;;;7.40;90.80;6.60;94481.00;;;;5073002;28;20187;-62
2023/12/13 02:39:13;;;;;;;0.70;0.70;;;7.40;90.70;6.70;94481.00;;;;5073007;28;20184;-62
2023/12/13 02:41:41;;;;;;;0.60;0.60;;;7.40;90.70;6.70;94479.00;;;;5073068;28;20207;-62
2023/12/13 02:44:08;;;;;;;0.70;0.70;;;7.40;90.70;6.60;94483.00;;;;5073275;28;20198;-63
2023/12/13 02:46:35;;;;;;;0.50;0.50;;;7.40;90.80;6.70;94482.00;;;;5072799;28;20670;-62
2023/12/13 02:49:02;;;;;;;0.50;0.50;;;7.40;91.10;6.60;94477.00;;;;5074173;28;20596;-62
2023/12/13 02:51:32;;;;;;;0.57;0.57;;;7.40;91.50;6.70;94478.00;;;;5077105;28;20545;-62
2023/12/13 02:53:59;;;;;;;0.77;0.77;;;7.40;92.00;6.70;94481.00;;;;5076945;28;20226;-62
2023/12/13 02:56:26;;;;;;;0.87;0.87;;;7.50;91.10;6.70;94478.00;;;;5077173;28;20191;-61
2023/12/13 02:58:54;;;;;;;0.50;0.50;;;7.50;91.20;6.60;94478.00;;;;5077008;28;20659;-61
2023/12/13 03:01:21;;;;;;;9.63;0.80;;;7.40;91.60;6.70;94478.00;;;;5076737;28;20190;-61
2023/12/13 03:03:48;;;;;;;0.50;0.50;;;7.50;91.60;6.90;94475.00;;;;5076936;28;20191;-61
2023/12/13 03:06:15;;;;;;;0.50;0.50;;;7.60;91.10;6.90;94465.00;;;;5076930;28;20199;-62
2023/12/13 03:08:42;;;;;;;0.50;0.50;;;7.60;91.10;6.90;94461.00;;;;5077016;28;20198;-62
2023/12/13 03:11:11;;;;;;;0.57;0.57;;;7.70;90.90;6.90;94465.00;;;;5076790;28;20183;-61
2023/12/13 03:13:38;;;;;;;0.50;0.50;;;7.60;90.80;6.80;94458.00;;;;5077797;28;20546;-61
2023/12/13 03:16:08;;;;;;;0.73;0.73;;;7.70;90.60;6.80;94467.00;;;;5076910;28;20190;-63
2023/12/13 03:18:35;;;;;;;0.50;0.50;;;7.60;90.30;6.70;94464.00;;;;5076791;28;20303;-62
2023/12/13 03:21:02;;;;;;;0.60;0.60;;;7.50;90.50;6.60;94449.00;;;;5077046;28;20196;-62
2023/12/13 03:23:29;;;;;;;0.50;0.50;;;7.40;91.30;6.60;94449.00;;;;5076372;28;20214;-61
2023/12/13 03:25:56;;;;;;;0.60;0.60;;;7.40;91.90;6.60;94455.00;;;;5076261;28;20282;-61
2023/12/13 03:28:23;;;;;;;0.60;0.60;;;7.40;91.80;6.70;94443.00;;;;5076832;28;20531;-61
2023/12/13 03:30:50;;;;;;;0.60;0.60;;;7.40;92.20;6.60;94432.00;;;;5076285;28;20191;-61
2023/12/13 03:33:18;;;;;;;0.60;0.60;;;7.40;90.80;6.60;94437.00;;;;5076149;28;20223;-62
2023/12/13 03:35:45;;;;;;;1.07;0.93;;;7.50;91.10;6.50;94434.00;;;;5076215;28;20574;-62
2023/12/13 03:38:12;;;;;;;1.17;1.07;;;7.40;91.10;6.50;94437.00;;;;5076331;28;20188;-62
2023/12/13 03:40:39;;;;;;;0.60;0.60;;;7.30;91.80;6.50;94434.00;;;;5076085;28;20195;-61
2023/12/13 03:43:06;;;;;;;16.63;0.97;;;7.30;91.60;6.40;94432.00;;;;5076214;28;20302;-62
2023/12/13 03:45:33;;;;;;;0.67;0.67;;;7.20;91.50;6.40;94428.00;;;;5076292;28;20187;-61
2023/12/13 03:48:00;;;;;;;0.60;0.60;;;7.30;92.30;6.40;94425.00;;;;5076070;28;20520;-61
2023/12/13 03:50:28;;;;;;;0.50;0.50;;;7.20;92.30;6.40;94410.00;;;;5076140;28;20188;-62
2023/12/13 03:52:55;;;;;;;0.60;0.60;;;7.30;92.20;6.40;94406.00;;;;5076642;28;20227;-62
2023/12/13 03:55:22;;;;;;;0.50;0.50;;;7.30;92.60;6.40;94402.00;;;;5076006;28;20214;-62
2023/12/13 03:57:49;;;;;;;1.07;1.07;;;7.30;92.50;6.40;94393.00;;;;5076359;28;20192;-62
2023/12/13 04:00:17;;;;;;;2.00;1.90;;;7.30;92.50;6.40;94388.00;;;;5076223;28;20536;-61
2023/12/13 04:02:44;;;;;;;1.10;1.03;;;7.30;92.20;6.40;94400.00;;;;5076261;28;20215;-61
2023/12/13 04:05:11;;;;;;;0.60;0.60;;;7.30;92.60;6.30;94398.00;;;;5075720;28;20188;-61
2023/12/13 04:07:40;;;;;;;1.83;0.70;;;7.20;92.10;6.30;94408.00;;;;5075611;28;20203;-61
2023/12/13 04:10:09;;;;;;;0.80;0.80;;;7.20;92.10;6.30;94401.00;;;;5075652;28;20218;-61
2023/12/13 04:12:36;;;;;;;5.83;1.00;;;7.20;92.20;6.30;94397.00;;;;5075761;28;20269;-62
2023/12/13 04:15:03;;;;;;;0.50;0.50;;;7.20;92.10;6.30;94397.00;;;;5074192;28;20216;-61
2023/12/13 04:17:30;;;;;;;0.70;0.70;;;7.20;91.90;6.30;94403.00;;;;5075562;28;20196;-62
2023/12/13 04:19:58;;;;;;;0.53;0.53;;;7.10;92.40;6.20;94403.00;;;;5075674;28;20593;-62
2023/12/13 04:22:25;;;;;;;0.60;0.60;;;7.20;92.70;6.30;94404.00;;;;5075338;28;20288;-62
2023/12/13 04:24:54;;;;;;;0.57;0.57;;;7.20;93.10;6.40;94400.00;;;;5075643;28;20226;-62
2023/12/13 04:27:21;;;;;;;0.60;0.60;;;7.20;92.70;6.30;94399.00;;;;5075836;28;20194;-62
2023/12/13 04:29:48;;;;;;;0.60;0.60;;;7.20;92.50;6.30;94399.00;;;;5075234;28;20191;-62
2023/12/13 04:32:15;;;;;;;0.53;0.53;;;7.20;92.60;6.30;94405.00;;;;5075255;28;20206;-62
2023/12/13 04:34:42;;;;;;;0.63;0.63;;;7.20;92.60;6.30;94405.00;;;;5075220;28;20218;-62
2023/12/13 04:37:09;;;;;;;0.80;0.80;;;7.20;92.80;6.30;94392.00;;;;5075356;28;20194;-62
2023/12/13 04:39:36;;;;;;;0.70;0.70;;;7.20;92.90;6.30;94397.00;;;;5075056;28;20194;-62
2023/12/13 04:42:04;;;;;;;0.80;0.80;;;7.20;93.10;6.30;94390.00;;;;5074956;28;20212;-61
2023/12/13 04:44:33;;;;;;;0.60;0.60;;;7.20;92.90;6.30;94395.00;;;;5075710;28;20211;-61
2023/12/13 04:47:00;;;;;;;0.60;0.60;;;7.20;92.80;6.20;94365.00;;;;5075109;28;20589;-61
2023/12/13 04:49:27;;;;;;;0.70;0.70;;;7.20;92.70;6.20;94392.00;;;;5074954;28;20214;-61
2023/12/13 04:51:55;;;;;;;0.87;0.87;;;7.10;93.00;6.20;94385.00;;;;5075019;28;20214;-62
2023/12/13 04:54:22;;;;;;;1.83;1.73;;;7.10;93.00;6.10;94381.00;;;;5074787;28;20771;-61
2023/12/13 04:56:49;;;;;;;0.60;0.60;;;7.00;92.90;6.10;94383.00;;;;5073477;28;20535;-62
2023/12/13 04:59:18;;;;;;;0.60;0.60;;;7.00;93.40;6.20;94376.00;;;;5074632;28;20188;-62
2023/12/13 05:01:46;;;;;;;1.30;1.20;;;7.10;93.50;6.20;94381.00;;;;5074719;28;20204;-62
2023/12/13 05:04:13;;;;;;;0.80;0.80;;;7.10;93.10;6.20;94378.00;;;;5074903;28;20281;-62
2023/12/13 05:06:40;;;;;;;0.60;0.60;;;7.00;93.30;6.20;94371.00;;;;5074474;28;20270;-62
2023/12/13 05:09:07;;;;;;;18.17;0.90;;;7.00;93.40;6.20;94376.00;;;;5074530;28;20550;-62
2023/12/13 05:11:34;;;;;;;0.80;0.80;;;7.10;93.40;6.20;94375.00;;;;5074126;28;20586;-61
2023/12/13 05:14:03;;;;;;;0.60;0.60;;;7.10;94.00;6.10;94376.00;;;;5074322;28;20222;-62
2023/12/13 05:16:31;;;;;;;0.60;0.60;;;7.00;93.10;6.10;94364.00;;;;5074283;28;20183;-62
2023/12/13 05:18:59;;;;;;;0.67;0.67;;;7.00;93.40;6.00;94365.00;;;;5074352;28;20191;-62
2023/12/13 05:21:26;;;;;;;6.53;1.43;;;7.00;93.10;6.10;94359.00;;;;5074574;28;20282;-62
2023/12/13 05:23:53;;;;;;;0.60;0.60;;;7.00;93.60;6.10;94355.00;;;;5074349;28;20214;-62
2023/12/13 05:26:20;;;;;;;0.60;0.60;;;7.00;93.30;6.10;94359.00;;;;5074989;28;20638;-62
2023/12/13 05:28:47;;;;;;;1.30;1.27;;;7.00;93.50;6.10;94365.00;;;;5074130;28;20824;-62
2023/12/13 05:31:24;;;;;;;1.63;1.53;;;7.00;93.30;6.10;94358.00;;;;5074227;28;20700;-62
2023/12/13 05:33:52;;;;;;;0.50;0.50;;;7.00;93.10;6.10;94354.00;;;;5073982;28;20557;-62
2023/12/13 05:36:20;;;;;;;1.13;0.97;;;7.00;92.70;6.00;94353.00;;;;5074489;28;20191;-62
2023/12/13 05:38:47;;;;;;;0.87;0.87;;;6.90;92.70;5.90;94352.00;;;;5074042;28;20199;-62
2023/12/13 05:41:14;;;;;;;0.60;0.60;;;6.90;92.30;5.90;94347.00;;;;5073868;28;20265;-62
2023/12/13 05:43:41;;;;;;;0.60;0.60;;;6.90;92.70;6.00;94342.00;;;;5074175;28;20248;-62
2023/12/13 05:46:08;;;;;;;0.67;0.67;;;6.80;93.00;6.00;94343.00;;;;5073865;28;20188;-62
2023/12/13 05:48:36;;;;;;;0.70;0.70;;;6.90;93.10;6.00;94346.00;;;;5073799;28;20190;-62
2023/12/13 05:51:04;;;;;;;0.60;0.60;;;6.90;92.80;6.00;94354.00;;;;5073776;28;20187;-62
2023/12/13 05:53:32;;;;;;;0.70;0.70;;;6.90;93.00;6.00;94352.00;;;;5073605;28;20210;-62
2023/12/13 05:56:00;;;;;;;2.27;0.83;;;6.90;92.80;6.00;94364.00;;;;5074298;28;20192;-62
2023/12/13 05:58:29;;;;;;;0.60;0.60;;;6.90;92.80;6.00;94368.00;;;;5073994;28;20186;-62
2023/12/13 06:00:56;;;;;;;0.70;0.70;;;6.80;92.50;6.10;94365.00;;;;5073824;28;20219;-62
2023/12/13 06:03:23;;;;;;;0.73;0.73;;;6.90;93.30;6.00;94362.00;;;;5072375;28;20214;-62
2023/12/13 06:05:50;;;;;;;0.90;0.90;;;6.90;91.20;6.00;94360.00;;;;5073470;28;20205;-62
2023/12/13 06:08:19;;;;;;;0.77;0.77;;;6.90;92.00;6.10;94359.00;;;;5073405;28;20194;-62
2023/12/13 06:10:46;;;;;;;0.50;0.50;;;6.90;92.60;6.10;94357.00;;;;5073987;28;20662;-62
2023/12/13 06:13:13;;;;;;;0.87;0.87;;;6.90;92.10;6.20;94355.00;;;;5073404;28;20206;-62
2023/12/13 06:15:40;;;;;;;0.50;0.50;;;7.00;93.40;6.40;94362.00;;;;5073555;28;20222;-62
2023/12/13 06:18:07;;;;;;;0.60;0.60;;;7.20;92.70;6.60;94345.00;;;;5073282;28;20187;-62
2023/12/13 06:20:34;;;;;;;0.70;0.70;;;7.30;92.30;6.70;94350.00;;;;5073758;28;20201;-62
2023/12/13 06:23:02;;;;;;;0.60;0.60;;;7.40;92.00;6.60;94349.00;;;;5073720;28;20239;-62
2023/12/13 06:25:30;;;;;;;0.53;0.53;;;7.40;90.80;6.60;94341.00;;;;5073588;28;20282;-62
2023/12/13 06:27:57;;;;;;;0.50;0.50;;;7.40;90.70;6.50;94341.00;;;;5073483;28;20187;-62
2023/12/13 06:30:24;;;;;;;0.70;0.70;;;7.40;90.30;6.60;94340.00;;;;5073442;28;20179;-62
2023/12/13 06:32:51;;;;;;;0.70;0.70;;;7.40;90.20;6.50;94330.00;;;;5073114;28;20207;-62
2023/12/13 06:35:18;;;;;;;0.53;0.53;;;7.40;89.70;6.50;94335.00;;;;5072988;28;20207;-62
2023/12/13 06:37:45;;;;;;;0.67;0.67;;;7.30;90.30;6.40;94331.00;;;;5073061;28;20538;-62
2023/12/13 06:40:15;;;;;;;0.73;0.73;;;7.20;89.80;6.40;94332.00;;;;5073000;28;20576;-63
2023/12/13 06:42:43;;;;;;;0.80;0.80;;;7.20;90.10;6.30;94337.00;;;;5073004;28;20214;-62
2023/12/13 06:45:11;;;;;;;0.60;0.60;;;7.10;90.00;6.00;94341.00;;;;5073480;28;20198;-62
2023/12/13 06:47:38;;;;;;;1.27;0.90;;;6.90;89.70;6.00;94342.00;;;;5072985;28;20187;-62
2023/12/13 06:50:07;;;;;;;0.80;0.80;;;6.90;91.20;6.20;94340.00;;;;5072932;28;20190;-62
2023/12/13 06:52:34;;;;;;;0.50;0.50;;;7.10;91.30;6.30;94338.00;;;;5073025;28;20301;-62
2023/12/13 06:55:01;;;;;;;0.60;0.60;;;7.10;91.00;6.50;94334.00;;;;5072974;28;20227;-62
2023/12/13 06:57:28;;;;;;;0.60;0.60;;;7.20;91.10;6.40;94339.00;;;;5073179;28;20199;-62
2023/12/13 06:59:58;;;;;;;0.73;0.73;;;7.20;90.10;6.30;94346.00;;;;5072904;28;20296;-62
2023/12/13 07:02:25;;;;;;;2.77;1.00;;;7.20;90.90;6.20;94341.00;;;;5072887;28;20214;-62
2023/12/13 07:04:52;;;;;;;1.17;1.17;;;7.10;91.00;6.30;94340.00;;;;5073086;28;20680;-63
2023/12/13 07:07:19;;;;;;;0.60;0.60;;;7.10;91.30;6.30;94333.00;;;;5072871;28;20191;-62
2023/12/13 07:09:46;;;;;;;0.60;0.60;;;7.00;91.20;6.10;94333.00;;;;5072703;28;20270;-62
2023/12/13 07:12:13;;;;;;;0.60;0.60;;;7.00;90.80;6.10;94349.00;;;;5072683;28;20208;-62
2023/12/13 07:14:40;;;;;;;0.57;0.57;;;6.90;91.10;6.20;94335.00;;;;5072851;28;20566;-62
2023/12/13 07:17:08;;;;;;;0.60;0.60;;;7.00;91.80;6.20;94335.00;;;;5072675;28;20190;-62
2023/12/13 07:19:35;;;;;;;0.50;0.50;;;7.00;91.40;6.30;94333.00;;;;5071361;28;20193;-62
2023/12/13 07:22:03;;;;;;;0.60;0.60;;;7.00;91.50;6.20;94331.00;;;;5072739;28;20240;-62
2023/12/13 07:24:30;;;;;;;0.70;0.70;;;7.00;90.30;6.20;94334.00;;;;5072463;28;20198;-62
2023/12/13 07:26:57;;;;;;;0.60;0.60;;;7.00;90.50;6.40;94327.00;;;;5072533;28;20221;-62
2023/12/13 07:29:24;;;;;;;0.80;0.80;;;7.20;90.40;6.40;94318.00;;;;5072527;28;20198;-62
2023/12/13 07:31:51;;;;;;;0.50;0.50;;;7.20;90.00;6.40;94320.00;;;;5072816;28;20241;-62
2023/12/13 07:34:20;;;;;;;0.50;0.50;;;7.20;89.90;6.40;94322.00;;;;5069242;28;20223;-66
2023/12/13 07:36:48;;;;;;;0.60;0.60;;;7.20;90.30;6.40;94330.00;;;;5072683;28;20203;-66
2023/12/13 07:39:16;;;;;;;0.60;0.60;;;7.30;90.70;6.40;94325.00;;;;5074848;28;20199;-66
2023/12/13 07:41:43;;;;;;;0.87;0.87;;;7.30;90.60;6.50;94322.00;;;;5074138;28;20810;-66
2023/12/13 07:44:11;;;;;;;0.50;0.50;;;7.30;90.60;6.50;94340.00;;;;5074329;28;20222;-67
2023/12/13 07:46:40;;;;;;;0.70;0.70;;;7.30;90.30;6.50;94324.00;;;;5072643;28;20200;-62
2023/12/13 07:49:08;;;;;;;0.70;0.70;;;7.30;90.40;6.50;94330.00;;;;5072019;28;20544;-62
2023/12/13 07:51:36;;;;;;;0.90;0.90;;;7.30;90.30;6.50;94325.00;;;;5072738;28;20621;-62
2023/12/13 07:54:04;;;;;;;0.60;0.60;;;7.30;91.10;6.40;94332.00;;;;5072788;28;20221;-62
2023/12/13 07:56:34;;;;;;;0.70;0.70;;;7.30;90.30;6.50;94312.00;;;;5074014;28;20253;-62
2023/12/13 07:59:01;;;;;;;0.60;0.60;;;7.30;90.90;6.50;94305.00;;;;5074002;28;20202;-62
2023/12/13 08:01:30;;;;;;;0.70;0.70;;;7.30;91.00;6.60;94311.00;;;;5074117;28;20201;-62
2023/12/13 08:04:00;;;;;;;0.60;0.60;;;7.40;91.60;6.70;94313.00;;;;5073502;28;20191;-62
2023/12/13 08:06:29;;;;;;;0.40;0.40;;;7.60;91.60;6.80;94317.00;;;;5074284;28;20204;-62
2023/12/13 08:08:58;;;;;;;0.50;0.50;;;7.60;91.60;6.90;94317.00;;;;5073343;28;20206;-62
2023/12/13 08:11:25;;;;;;;0.80;0.80;;;7.70;91.90;6.80;94315.00;;;;5073128;28;20199;-62
2023/12/13 08:13:52;;;;;;;0.50;0.50;;;7.70;91.10;6.80;94331.00;;;;5072676;28;20203;-61
2023/12/13 08:16:19;;;;;;;0.70;0.70;;;7.70;90.90;6.80;94320.00;;;;5074040;28;20256;-61
2023/12/13 08:18:46;;;;;;;0.93;0.93;;;7.70;91.10;6.80;94331.00;;;;5072992;28;20209;-62
2023/12/13 08:21:14;;;;;;;0.60;0.60;;;7.70;90.70;6.80;94323.00;;;;5073216;28;20187;-62
2023/12/13 08:23:44;;;;;;;0.70;0.70;;;7.60;90.80;6.70;94324.00;;;;5073318;28;20663;-62
2023/12/13 08:26:13;;;;;;;0.70;0.70;;;7.60;90.60;6.80;94331.00;;;;5073424;28;20590;-62
2023/12/13 08:28:39;;;;;;;0.60;0.60;;;7.60;91.20;6.90;94320.00;;;;5073664;28;20202;-61
2023/12/13 08:31:07;;;;;;;0.87;0.87;;;7.60;91.20;7.00;94320.00;;;;5073721;28;20188;-61
2023/12/13 08:33:34;;;;;;;0.70;0.70;;;7.80;90.60;7.00;94326.00;;;;5073100;28;20603;-61
2023/12/13 08:36:04;;;;;;;0.50;0.50;;;7.80;88.80;6.90;94328.00;;;;5073492;28;20218;-61
2023/12/13 08:38:31;;;;;;;0.70;0.70;;;7.80;88.70;6.80;94318.00;;;;5073354;28;20568;-61
2023/12/13 08:40:58;;;;;;;1.13;1.00;;;7.60;89.10;7.00;94313.00;;;;5070709;28;20772;-61
2023/12/13 08:43:27;;;;;;;0.60;0.60;;;7.70;90.10;6.90;94321.00;;;;5073190;28;20242;-61
2023/12/13 08:45:54;;;;;;;0.80;0.80;;;7.70;89.50;6.80;94318.00;;;;5073033;28;20229;-61
2023/12/13 08:48:21;;;;;;;0.50;0.50;;;7.60;89.40;6.80;94307.00;;;;5071080;28;20691;-61
2023/12/13 08:50:48;;;;;;;1.07;1.07;;;7.60;90.20;6.90;94311.00;;;;5073008;28;20202;-61
2023/12/13 08:53:16;;;;;;;0.70;0.70;;;7.70;90.50;7.00;94311.00;;;;5072844;28;20219;-62
2023/12/13 08:55:43;;;;;;;1.47;1.37;;;7.70;90.20;6.90;94313.00;;;;5072923;28;20215;-62
2023/12/13 08:58:11;;;;;;;0.80;0.80;;;7.70;89.90;6.90;94318.00;;;;5072872;28;20746;-62
2023/12/13 09:00:40;;;;;;;0.50;0.50;;;7.70;90.50;7.00;94316.00;;;;5072548;28;20191;-62
2023/12/13 09:03:08;;;;;;;0.80;0.80;;;7.80;90.60;7.10;94311.00;;;;5071216;28;20717;-62
2023/12/13 09:05:37;;;;;;;0.70;0.70;;;7.80;91.00;7.20;94310.00;;;;5070673;28;20555;-61
2023/12/13 09:08:04;;;;;;;0.60;0.60;;;7.90;91.20;7.30;94308.00;;;;5072798;28;20650;-62
2023/12/13 09:10:34;;;;;;;0.70;0.70;;;8.00;90.60;7.20;94304.00;;;;5072512;28;20191;-62
2023/12/13 09:13:03;;;;;;;4.27;1.03;;;8.00;89.90;7.30;94299.00;;;;5072370;28;20214;-62
2023/12/13 09:15:31;;;;;;;0.60;0.60;;;8.10;90.10;7.30;94311.00;;;;5072688;28;20728;-61
2023/12/13 09:18:00;;;;;;;0.70;0.70;;;8.10;89.30;7.30;94305.00;;;;5072462;28;20693;-61
2023/12/13 09:20:27;;;;;;;0.60;0.60;;;8.00;90.10;7.20;94315.00;;;;5071031;28;20191;-61
2023/12/13 09:22:55;;;;;;;0.50;0.50;;;8.00;90.10;7.00;94316.00;;;;5072379;28;20268;-61
2023/12/13 09:25:22;;;;;;;0.60;0.60;;;7.90;90.20;7.10;94332.00;;;;5068644;28;20195;-61
2023/12/13 09:27:49;;;;;;;0.60;0.60;;;7.90;90.70;7.00;94314.00;;;;5070073;28;20187;-61
2023/12/13 09:30:16;;;;;;;2.57;0.97;;;7.80;91.10;7.00;94327.00;;;;5072144;28;20190;-61
2023/12/13 09:32:44;;;;;;;0.60;0.60;;;7.70;92.20;7.10;94337.00;;;;5072312;28;20234;-61
2023/12/13 09:35:12;;;;;;;0.60;0.60;;;7.80;92.00;6.90;94343.00;;;;5071701;28;20214;-61
2023/12/13 09:37:41;;;;;;;1.30;1.13;;;7.70;92.40;6.80;94334.00;;;;5072599;28;20699;-61
2023/12/13 09:40:15;;;;;;;0.60;0.60;;;7.60;93.70;6.90;94330.00;;;;5071852;28;20270;-62
2023/12/13 09:42:45;;;;;;;4.70;1.07;;;7.60;94.10;6.70;94338.00;;;;5072137;28;20210;-62
2023/12/13 09:45:21;;;;;;;0.60;0.60;;;7.60;94.00;6.80;94345.00;;;;5071473;28;20684;-61
2023/12/13 09:47:49;;;;;;;0.70;0.70;;;7.60;94.60;6.90;94339.00;;;;5071279;28;20676;-61
2023/12/13 09:50:18;;;;;;;0.60;0.60;;;7.70;94.40;7.00;94338.00;;;;5071637;28;20195;-62
2023/12/13 09:52:46;;;;;;;0.70;0.70;;;7.70;94.20;6.80;94316.00;;;;5071699;28;20762;-62
2023/12/13 09:55:16;;;;;;;1.43;0.93;;;7.70;93.90;6.90;94331.00;;;;5061454;28;20321;-61
2023/12/13 09:57:43;;;;;;;0.70;0.70;;;7.70;94.50;7.00;94322.00;;;;5053975;28;20535;-61
2023/12/13 10:00:12;;;;;;;0.60;0.60;;;7.70;94.90;7.20;94337.00;;;;5055548;28;20234;-62
2023/12/13 10:02:39;;;;;;;1.80;1.70;;;7.90;95.50;7.30;94328.00;;;;5045946;28;20227;-61
2023/12/13 10:05:12;;;;;;;0.83;0.83;;;8.00;95.20;7.40;94317.00;;;;5059691;28;20203;-61
2023/12/13 10:07:41;;;;;;;2.00;1.37;;;8.10;95.10;7.50;94318.00;;;;5057444;28;20609;-60
2023/12/13 10:10:09;;;;;;;2.93;1.20;;;8.20;94.80;7.70;94319.00;;;;5056697;28;20206;-60
2023/12/13 10:12:38;;;;;;;0.70;0.70;;;;;7.80;94316.00;;;;5055654;28;20219;-60
2023/12/13 10:15:10;;;;;;;0.60;0.60;;;;;8.10;94317.00;;;;5055679;28;20228;-60
2023/12/13 10:17:38;;;;;;;0.63;0.63;;;;;8.40;94315.00;;;;5060523;28;20207;-60
2023/12/13 10:20:07;;;;;;;0.87;0.87;;;;;8.70;94330.00;;;;5071613;28;20643;-61
2023/12/13 10:22:36;;;;;;;0.70;0.70;;;;;9.10;94327.00;;;;5070359;28;20226;-60
2023/12/13 10:25:06;;;;;;;0.70;0.70;;;;;9.20;94331.00;;;;5070809;28;22137;-60
2023/12/13 10:27:34;;;;;;;0.70;0.70;;;;;9.20;94331.00;;;;5071351;28;20205;-60
2023/12/13 10:30:02;;;;;;;0.80;0.80;;;;;9.30;94322.00;;;;5071453;28;20210;-60
2023/12/13 10:32:30;;;;;;;0.60;0.60;;;;;9.80;94313.00;;;;5069301;28;20300;-60
2023/12/13 10:34:57;;;;;;;0.60;0.60;;;;;9.90;94309.00;;;;5070583;28;20285;-60
2023/12/13 10:37:27;;;;;;;0.60;0.60;;;;;10.20;94306.00;;;;5069704;28;20203;-60
2023/12/13 10:39:58;;;;;;;0.70;0.70;;;;;10.10;94312.00;;;;5071263;28;20262;-61
2023/12/13 10:42:27;;;;;;;0.80;0.80;;;;;9.90;94312.00;;;;5071093;28;20223;-60
2023/12/13 10:44:54;;;;;;;0.60;0.60;;;;;9.60;94313.00;;;;5070492;28;20681;-60
2023/12/13 10:47:25;;;;;;;0.70;0.70;;;;;9.20;94318.00;;;;5070901;28;20214;-60
2023/12/13 10:49:55;;;;;;;0.70;0.70;;;;;9.10;94314.00;;;;5069891;28;20268;-60
2023/12/13 10:52:24;;;;;;;0.70;0.70;;;;;9.00;94303.00;;;;5066701;28;20223;-61
2023/12/13 10:54:52;;;;;;;0.80;0.80;;;;;9.00;94302.00;;;;5065978;28;20297;-60
2023/12/13 10:57:21;;;;;;;0.70;0.70;;;;;8.90;94299.00;;;;5048508;28;20222;-61
2023/12/13 10:59:51;;;;;;;0.60;0.60;;;;;8.70;94298.00;;;;5052939;28;20541;-61
2023/12/13 11:02:21;;;;;;;0.60;0.60;;;;;8.80;94307.00;;;;5049169;28;20302;-61
2023/12/13 11:04:49;;;;;;;0.63;0.63;;;;;8.80;94311.00;;;;5047987;28;20222;-61
2023/12/13 11:07:16;;;;;;;0.90;0.90;;;;;8.80;94306.00;;;;5043952;28;20223;-60
2023/12/13 11:09:49;;;;;;;0.80;0.80;;;;;8.90;94300.00;;;;5059520;28;20531;-61
2023/12/13 11:12:18;;;;;;;0.83;0.73;;;;;9.00;94301.00;;;;5074588;28;20214;-61
2023/12/13 11:14:50;;;;;;;1.00;1.00;;;;;8.90;94299.00;;;;5075119;28;20199;-61
2023/12/13 11:17:19;;;;;;;0.70;0.70;;;;;8.90;94303.00;;;;5074790;28;20203;-62
2023/12/13 11:19:51;;;;;;;0.80;0.80;;;;;9.00;94307.00;;;;5075327;28;20571;-61